createdAt,value
2022-08-31T00:00:50.757Z,986.111
2022-08-31T00:02:50.754Z,986.144
2022-08-31T00:04:50.716Z,986.148
2022-08-31T00:06:54.376Z,986.100
2022-08-31T00:08:50.323Z,986.066
2022-08-31T00:10:50.081Z,986.109
2022-08-31T00:12:49.851Z,986.094
2022-08-31T00:14:50.027Z,986.106
2022-08-31T00:16:51.000Z,986.063
2022-08-31T00:18:50.205Z,986.075
2022-08-31T00:20:50.107Z,986.075
2022-08-31T00:22:50.142Z,986.078
2022-08-31T00:24:50.489Z,986.069
2022-08-31T00:26:50.719Z,986.008
2022-08-31T00:28:50.508Z,986.002
2022-08-31T00:30:50.401Z,986.002
2022-08-31T00:32:50.289Z,986.009
2022-08-31T00:34:50.588Z,986.017
2022-08-31T00:36:49.793Z,985.988
2022-08-31T00:38:50.637Z,986.036
2022-08-31T00:40:50.624Z,986.020
2022-08-31T00:42:50.616Z,985.926
2022-08-31T00:44:50.633Z,985.974
2022-08-31T00:46:50.760Z,985.990
2022-08-31T00:48:49.914Z,985.999
2022-08-31T00:50:50.633Z,985.976
2022-08-31T00:52:50.692Z,985.957
2022-08-31T00:54:50.601Z,985.934
2022-08-31T00:56:49.958Z,985.976
2022-08-31T00:58:55.303Z,985.976
2022-08-31T01:00:50.494Z,985.952
2022-08-31T01:02:50.647Z,985.940
2022-08-31T01:04:50.724Z,985.933
2022-08-31T01:06:50.010Z,985.905
2022-08-31T01:08:50.174Z,985.885
2022-08-31T01:10:50.005Z,985.880
2022-08-31T01:12:50.864Z,985.927
2022-08-31T01:14:49.957Z,985.872
2022-08-31T01:16:50.492Z,985.909
2022-08-31T01:18:49.847Z,985.939
2022-08-31T01:20:49.796Z,985.958
2022-08-31T01:22:50.007Z,985.941
2022-08-31T01:24:49.931Z,985.910
2022-08-31T01:26:56.228Z,985.968
2022-08-31T01:28:50.234Z,985.956
2022-08-31T01:30:50.086Z,985.975
2022-08-31T01:32:50.140Z,986.000
2022-08-31T01:34:50.633Z,985.967
2022-08-31T01:36:49.911Z,985.973
2022-08-31T01:38:53.667Z,985.959
2022-08-31T01:40:50.639Z,985.959
2022-08-31T01:42:50.369Z,985.982
2022-08-31T01:44:50.313Z,985.981
2022-08-31T01:46:50.158Z,986.033
2022-08-31T01:48:50.232Z,986.002
2022-08-31T01:50:50.210Z,986.016
2022-08-31T01:52:50.147Z,985.962
2022-08-31T01:54:50.269Z,985.984
2022-08-31T01:56:50.579Z,985.955
2022-08-31T01:58:50.607Z,985.937
2022-08-31T02:00:50.774Z,985.972
2022-08-31T02:02:50.324Z,985.957
2022-08-31T02:04:49.960Z,985.987
2022-08-31T02:06:50.303Z,985.994
2022-08-31T02:08:50.774Z,986.033
2022-08-31T02:10:49.889Z,986.025
2022-08-31T02:12:49.959Z,986.019
2022-08-31T02:14:49.947Z,985.978
2022-08-31T02:16:50.021Z,985.933
2022-08-31T02:18:50.176Z,985.941
2022-08-31T02:20:49.937Z,985.927
2022-08-31T02:22:50.728Z,985.902
2022-08-31T02:24:49.903Z,985.861
2022-08-31T02:26:54.237Z,985.777
2022-08-31T02:28:50.360Z,985.780
2022-08-31T02:30:50.240Z,985.756
2022-08-31T02:32:50.265Z,985.791
2022-08-31T02:34:50.539Z,985.798
2022-08-31T02:36:49.907Z,985.814
2022-08-31T02:38:51.410Z,985.834
2022-08-31T02:40:51.384Z,985.799
2022-08-31T02:42:54.370Z,985.835
2022-08-31T02:44:50.340Z,985.871
2022-08-31T02:46:50.690Z,985.923
2022-08-31T02:48:50.013Z,985.954
2022-08-31T02:50:49.850Z,985.936
2022-08-31T02:52:50.618Z,985.936
2022-08-31T02:54:50.658Z,985.899
2022-08-31T02:56:49.823Z,985.871
2022-08-31T02:58:49.887Z,985.883
2022-08-31T03:00:50.708Z,985.849
2022-08-31T03:02:51.031Z,985.854
2022-08-31T03:04:49.791Z,985.841
2022-08-31T03:06:50.204Z,985.859
2022-08-31T03:08:50.063Z,985.854
2022-08-31T03:10:50.106Z,985.855
2022-08-31T03:12:49.871Z,985.856
2022-08-31T03:14:50.719Z,985.865
2022-08-31T03:16:52.233Z,985.855
2022-08-31T03:18:50.044Z,985.834
2022-08-31T03:20:49.944Z,985.885
2022-08-31T03:22:51.440Z,985.837
2022-08-31T03:24:50.380Z,985.858
2022-08-31T03:26:50.683Z,985.812
2022-08-31T03:28:50.574Z,985.817
2022-08-31T03:30:50.721Z,985.798
2022-08-31T03:32:55.112Z,985.745
2022-08-31T03:34:50.506Z,985.826
2022-08-31T03:36:49.855Z,985.782
2022-08-31T03:38:50.667Z,985.815
2022-08-31T03:40:50.879Z,985.798
2022-08-31T03:42:49.862Z,985.818
2022-08-31T03:44:50.027Z,985.782
2022-08-31T03:46:50.555Z,985.795
2022-08-31T03:48:49.960Z,985.819
2022-08-31T03:50:49.811Z,985.809
2022-08-31T03:52:49.856Z,985.846
2022-08-31T03:54:50.673Z,985.851
2022-08-31T03:56:53.304Z,985.898
2022-08-31T03:58:50.230Z,985.899
2022-08-31T04:00:50.264Z,985.906
2022-08-31T04:02:50.403Z,985.904
2022-08-31T04:04:49.974Z,985.901
2022-08-31T04:06:50.073Z,985.925
2022-08-31T04:08:50.069Z,985.952
2022-08-31T04:10:49.992Z,985.924
2022-08-31T04:12:50.173Z,985.933
2022-08-31T04:14:49.884Z,985.961
2022-08-31T04:16:50.321Z,986.010
2022-08-31T04:18:50.210Z,986.011
2022-08-31T04:20:50.174Z,986.016
2022-08-31T04:22:50.015Z,986.014
2022-08-31T04:24:49.881Z,986.032
2022-08-31T04:26:49.992Z,986.024
2022-08-31T04:28:49.880Z,986.031
2022-08-31T04:30:50.021Z,986.020
2022-08-31T04:32:50.017Z,986.028
2022-08-31T04:34:56.900Z,986.038
2022-08-31T04:36:50.372Z,986.028
2022-08-31T04:38:51.567Z,986.007
2022-08-31T04:40:52.757Z,985.984
2022-08-31T04:42:49.927Z,985.946
2022-08-31T04:44:49.849Z,985.994
2022-08-31T04:46:50.051Z,985.983
2022-08-31T04:48:49.852Z,986.005
2022-08-31T04:50:49.905Z,986.022
2022-08-31T04:53:04.205Z,986.045
2022-08-31T04:54:50.475Z,986.077
2022-08-31T04:56:50.585Z,986.077
2022-08-31T04:58:50.703Z,986.112
2022-08-31T05:00:50.585Z,986.170
2022-08-31T05:02:53.402Z,986.182
2022-08-31T05:04:49.966Z,986.192
2022-08-31T05:06:50.129Z,986.235
2022-08-31T05:08:50.078Z,986.291
2022-08-31T05:10:50.138Z,986.275
2022-08-31T05:12:50.013Z,986.272
2022-08-31T05:14:49.917Z,986.285
2022-08-31T05:16:50.000Z,986.319
2022-08-31T05:18:49.927Z,986.334
2022-08-31T05:20:50.695Z,986.363
2022-08-31T05:22:50.774Z,986.363
2022-08-31T05:24:50.608Z,986.364
2022-08-31T05:26:50.679Z,986.331
2022-08-31T05:28:50.555Z,986.277
2022-08-31T05:30:50.586Z,986.282
2022-08-31T05:32:50.805Z,986.315
2022-08-31T05:34:50.410Z,986.315
2022-08-31T05:36:50.540Z,986.329
2022-08-31T05:38:50.389Z,986.352
2022-08-31T05:40:50.572Z,986.361
2022-08-31T05:42:50.712Z,986.366
2022-08-31T05:44:50.574Z,986.350
2022-08-31T05:47:04.281Z,986.393
2022-08-31T05:48:50.421Z,986.393
2022-08-31T05:50:52.296Z,986.387
2022-08-31T05:52:50.382Z,986.415
2022-08-31T05:54:50.320Z,986.381
2022-08-31T05:56:50.572Z,986.352
2022-08-31T05:58:50.495Z,986.331
2022-08-31T06:00:50.476Z,986.414
2022-08-31T06:02:54.199Z,986.355
2022-08-31T06:04:52.532Z,986.402
2022-08-31T06:06:50.754Z,986.402
2022-08-31T06:08:50.808Z,986.388
2022-08-31T06:10:53.127Z,986.401
2022-08-31T06:12:49.982Z,986.357
2022-08-31T06:14:53.801Z,986.377
2022-08-31T06:16:50.139Z,986.357
2022-08-31T06:18:50.108Z,986.378
2022-08-31T06:20:50.144Z,986.393
2022-08-31T06:22:50.234Z,986.499
2022-08-31T06:24:50.202Z,986.495
2022-08-31T06:26:59.050Z,986.466
2022-08-31T06:28:50.644Z,986.437
2022-08-31T06:30:56.109Z,986.516
2022-08-31T06:32:49.939Z,986.474
2022-08-31T06:34:50.374Z,986.533
2022-08-31T06:36:50.791Z,986.551
2022-08-31T06:38:50.598Z,986.519
2022-08-31T06:40:50.856Z,986.561
2022-08-31T06:42:50.768Z,986.565
2022-08-31T06:44:49.824Z,986.551
2022-08-31T06:46:50.457Z,986.546
2022-08-31T06:48:50.328Z,986.507
2022-08-31T06:50:50.194Z,986.533
2022-08-31T06:52:50.121Z,986.562
2022-08-31T06:54:50.285Z,986.578
2022-08-31T06:56:50.378Z,986.634
2022-08-31T06:58:54.459Z,986.580
2022-08-31T07:00:53.309Z,986.580
2022-08-31T07:02:58.329Z,986.615
2022-08-31T07:04:49.974Z,986.619
2022-08-31T07:06:50.356Z,986.607
2022-08-31T07:08:50.291Z,986.614
2022-08-31T07:10:50.477Z,986.580
2022-08-31T07:12:50.288Z,986.580
2022-08-31T07:14:55.635Z,986.596
2022-08-31T07:16:51.219Z,986.647
2022-08-31T07:18:50.388Z,986.639
2022-08-31T07:20:50.288Z,986.686
2022-08-31T07:22:49.968Z,986.675
2022-08-31T07:24:49.905Z,986.672
2022-08-31T07:26:50.267Z,986.692
2022-08-31T07:28:50.032Z,986.712
2022-08-31T07:30:50.335Z,986.720
2022-08-31T07:32:50.312Z,986.751
2022-08-31T07:35:01.172Z,986.757
2022-08-31T07:36:50.415Z,986.759
2022-08-31T07:38:50.475Z,986.810
2022-08-31T07:40:50.394Z,986.786
2022-08-31T07:42:50.066Z,986.781
2022-08-31T07:44:54.017Z,986.839
2022-08-31T07:46:50.068Z,986.856
2022-08-31T07:48:50.801Z,986.838
2022-08-31T07:50:50.001Z,986.885
2022-08-31T07:52:49.822Z,986.902
2022-08-31T07:54:50.654Z,986.915
2022-08-31T07:56:50.050Z,986.940
2022-08-31T07:58:50.067Z,986.901
2022-08-31T08:00:50.047Z,986.918
2022-08-31T08:02:53.955Z,986.929
2022-08-31T08:04:50.614Z,986.955
2022-08-31T08:06:49.905Z,986.967
2022-08-31T08:09:22.153Z,986.890
2022-08-31T08:10:53.397Z,986.890
2022-08-31T08:12:51.562Z,986.901
2022-08-31T08:14:50.385Z,986.927
2022-08-31T08:16:51.364Z,986.952
2022-08-31T08:18:50.386Z,986.952
2022-08-31T08:20:51.081Z,986.994
2022-08-31T08:22:56.033Z,986.961
2022-08-31T08:24:50.127Z,986.937
2022-08-31T08:26:54.795Z,986.883
2022-08-31T08:28:50.582Z,986.883
2022-08-31T08:30:50.287Z,986.929
2022-08-31T08:32:50.301Z,986.969
2022-08-31T08:34:50.015Z,986.990
2022-08-31T08:36:50.137Z,987.015
2022-08-31T08:38:49.881Z,987.015
2022-08-31T08:40:50.873Z,987.036
2022-08-31T08:42:49.895Z,987.044
2022-08-31T08:44:50.671Z,986.976
2022-08-31T08:46:50.085Z,986.986
2022-08-31T08:48:56.253Z,986.994
2022-08-31T08:50:50.326Z,987.047
2022-08-31T08:52:50.240Z,987.018
2022-08-31T08:54:50.341Z,987.043
2022-08-31T08:56:50.502Z,987.040
2022-08-31T08:58:50.422Z,987.044
2022-08-31T09:00:50.259Z,987.063
2022-08-31T09:02:50.517Z,987.088
2022-08-31T09:04:50.239Z,987.085
2022-08-31T09:06:54.960Z,987.034
2022-08-31T09:08:49.890Z,987.069
2022-08-31T09:10:50.128Z,987.043
2022-08-31T09:12:49.942Z,987.063
2022-08-31T09:14:49.913Z,987.034
2022-08-31T09:16:50.081Z,987.005
2022-08-31T09:18:49.961Z,987.064
2022-08-31T09:20:49.928Z,986.987
2022-08-31T09:22:49.838Z,986.997
2022-08-31T09:24:52.533Z,987.022
2022-08-31T09:26:50.778Z,987.004
2022-08-31T09:28:50.846Z,987.015
2022-08-31T09:30:50.623Z,987.005
2022-08-31T09:32:50.781Z,987.011
2022-08-31T09:34:50.438Z,986.985
2022-08-31T09:36:50.599Z,986.953
2022-08-31T09:38:50.314Z,986.992
2022-08-31T09:40:50.627Z,986.982
2022-08-31T09:42:51.711Z,986.987
2022-08-31T09:44:51.059Z,986.982
2022-08-31T09:46:50.009Z,986.978
2022-08-31T09:48:50.046Z,986.939
2022-08-31T09:50:49.823Z,986.955
2022-08-31T09:52:50.669Z,986.911
2022-08-31T09:54:50.657Z,986.891
2022-08-31T09:56:50.785Z,986.940
2022-08-31T09:58:50.543Z,986.932
2022-08-31T10:00:50.310Z,986.932
2022-08-31T10:02:50.328Z,986.889
2022-08-31T10:04:51.084Z,986.847
2022-08-31T10:06:50.552Z,986.868
2022-08-31T10:08:50.290Z,986.900
2022-08-31T10:10:50.413Z,986.861
2022-08-31T10:12:50.257Z,986.848
2022-08-31T10:14:50.211Z,986.843
2022-08-31T10:16:50.253Z,986.848
2022-08-31T10:18:50.265Z,986.848
2022-08-31T10:20:50.130Z,986.866
2022-08-31T10:22:50.326Z,986.801
2022-08-31T10:24:50.192Z,986.795
2022-08-31T10:26:50.402Z,986.781
2022-08-31T10:28:50.254Z,986.901
2022-08-31T10:30:50.424Z,986.861
2022-08-31T10:32:50.389Z,986.847
2022-08-31T10:34:49.835Z,986.798
2022-08-31T10:36:50.062Z,986.849
2022-08-31T10:38:50.001Z,986.859
2022-08-31T10:40:50.298Z,986.886
2022-08-31T10:42:50.416Z,986.892
2022-08-31T10:44:50.553Z,986.845
2022-08-31T10:46:50.728Z,986.882
2022-08-31T10:48:50.759Z,986.887
2022-08-31T10:50:50.634Z,986.887
2022-08-31T10:52:49.871Z,986.799
2022-08-31T10:54:51.494Z,986.799
2022-08-31T10:56:49.953Z,986.808
2022-08-31T10:58:50.248Z,986.809
2022-08-31T11:00:50.129Z,986.779
2022-08-31T11:02:50.052Z,986.804
2022-08-31T11:04:50.892Z,986.834
2022-08-31T11:06:50.214Z,986.795
2022-08-31T11:08:50.034Z,986.756
2022-08-31T11:10:50.097Z,986.816
2022-08-31T11:12:50.027Z,986.811
2022-08-31T11:14:49.899Z,986.802
2022-08-31T11:16:49.939Z,986.777
2022-08-31T11:18:50.645Z,986.776
2022-08-31T11:20:50.708Z,986.791
2022-08-31T11:22:50.516Z,986.818
2022-08-31T11:24:50.682Z,986.787
2022-08-31T11:26:49.975Z,986.775
2022-08-31T11:28:49.861Z,986.799
2022-08-31T11:30:51.794Z,986.732
2022-08-31T11:32:50.115Z,986.793
2022-08-31T11:34:50.462Z,986.756
2022-08-31T11:36:50.959Z,986.761
2022-08-31T11:38:50.307Z,986.713
2022-08-31T11:40:50.587Z,986.707
2022-08-31T11:42:50.183Z,986.688
2022-08-31T11:44:50.059Z,986.688
2022-08-31T11:46:50.891Z,986.678
2022-08-31T11:48:50.564Z,986.663
2022-08-31T11:50:50.475Z,986.645
2022-08-31T11:52:50.661Z,986.659
2022-08-31T11:54:50.487Z,986.678
2022-08-31T11:56:49.825Z,986.709
2022-08-31T11:58:50.688Z,986.686
2022-08-31T12:00:52.901Z,986.683
2022-08-31T12:02:50.759Z,986.701
2022-08-31T12:04:50.555Z,986.750
2022-08-31T12:06:50.348Z,986.728
2022-08-31T12:08:50.087Z,986.700
2022-08-31T12:10:49.999Z,986.704
2022-08-31T12:12:49.831Z,986.676
2022-08-31T12:14:49.900Z,986.692
2022-08-31T12:16:49.982Z,986.728
2022-08-31T12:18:50.061Z,986.714
2022-08-31T12:20:49.973Z,986.735
2022-08-31T12:22:50.736Z,986.714
2022-08-31T12:24:50.134Z,986.734
2022-08-31T12:26:50.666Z,986.722
2022-08-31T12:28:50.288Z,986.702
2022-08-31T12:30:50.389Z,986.725
2022-08-31T12:32:50.333Z,986.706
2022-08-31T12:34:49.858Z,986.733
2022-08-31T12:36:51.063Z,986.784
2022-08-31T12:38:50.031Z,986.771
2022-08-31T12:40:50.419Z,986.730
2022-08-31T12:42:50.577Z,986.770
2022-08-31T12:44:50.502Z,986.781
2022-08-31T12:46:50.159Z,986.753
2022-08-31T12:48:50.508Z,986.747
2022-08-31T12:50:50.177Z,986.739
2022-08-31T12:52:50.481Z,986.740
2022-08-31T12:54:50.310Z,986.761
2022-08-31T12:56:50.537Z,986.761
2022-08-31T12:58:49.843Z,986.811
2022-08-31T13:00:50.754Z,986.814
2022-08-31T13:02:51.283Z,986.751
2022-08-31T13:04:49.982Z,986.764
2022-08-31T13:06:50.074Z,986.748
2022-08-31T13:08:49.985Z,986.752
2022-08-31T13:10:50.357Z,986.708
2022-08-31T13:12:50.504Z,986.717
2022-08-31T13:14:49.833Z,986.661
2022-08-31T13:16:50.784Z,986.688
2022-08-31T13:18:54.561Z,986.666
2022-08-31T13:20:50.526Z,986.644
2022-08-31T13:22:50.408Z,986.671
2022-08-31T13:24:54.520Z,986.671
2022-08-31T13:26:50.818Z,986.706
2022-08-31T13:28:50.163Z,986.611
2022-08-31T13:31:02.770Z,986.668
2022-08-31T13:32:50.333Z,986.677
2022-08-31T13:34:50.596Z,986.643
2022-08-31T13:36:53.999Z,986.650
2022-08-31T13:38:50.772Z,986.700
2022-08-31T13:40:51.029Z,986.706
2022-08-31T13:42:57.493Z,986.636
2022-08-31T13:44:50.410Z,986.648
2022-08-31T13:46:50.178Z,986.648
2022-08-31T13:48:50.233Z,986.641
2022-08-31T13:50:53.689Z,986.657
2022-08-31T13:53:26.221Z,986.631
2022-08-31T13:54:50.654Z,986.655
2022-08-31T13:56:50.801Z,986.600
2022-08-31T13:58:49.927Z,986.625
2022-08-31T14:00:51.001Z,986.625
2022-08-31T14:02:50.863Z,986.634
2022-08-31T14:04:50.631Z,986.666
2022-08-31T14:06:50.731Z,986.627
2022-08-31T14:08:50.610Z,986.683
2022-08-31T14:10:51.675Z,986.736
2022-08-31T14:12:50.226Z,986.746
2022-08-31T14:14:49.853Z,986.722
2022-08-31T14:16:52.765Z,986.658
2022-08-31T14:18:50.756Z,986.626
2022-08-31T14:21:20.880Z,986.630
2022-08-31T14:22:50.665Z,986.632
2022-08-31T14:24:50.250Z,986.556
2022-08-31T14:26:50.431Z,986.514
2022-08-31T14:28:50.138Z,986.452
2022-08-31T14:30:49.985Z,986.479
2022-08-31T14:32:50.120Z,986.464
2022-08-31T14:34:50.532Z,986.448
2022-08-31T14:36:49.965Z,986.464
2022-08-31T14:38:50.225Z,986.503
2022-08-31T14:40:50.461Z,986.461
2022-08-31T14:42:50.338Z,986.492
2022-08-31T14:44:50.240Z,986.473
2022-08-31T14:46:50.477Z,986.461
2022-08-31T14:48:50.551Z,986.351
2022-08-31T14:50:50.428Z,986.387
2022-08-31T14:52:50.427Z,986.375
2022-08-31T14:54:50.181Z,986.411
2022-08-31T14:56:50.710Z,986.400
2022-08-31T14:58:51.400Z,986.318
2022-08-31T15:00:54.420Z,986.400
2022-08-31T15:02:50.695Z,986.393
2022-08-31T15:04:50.095Z,986.366
2022-08-31T15:06:49.999Z,986.394
2022-08-31T15:08:49.955Z,986.423
2022-08-31T15:10:49.814Z,986.437
2022-08-31T15:12:50.731Z,986.423
2022-08-31T15:14:50.777Z,986.386
2022-08-31T15:16:51.209Z,986.386
2022-08-31T15:18:50.253Z,986.423
2022-08-31T15:20:51.299Z,986.503
2022-08-31T15:22:50.397Z,986.540
2022-08-31T15:24:50.174Z,986.525
2022-08-31T15:26:50.420Z,986.562
2022-08-31T15:28:50.362Z,986.602
2022-08-31T15:30:49.929Z,986.565
2022-08-31T15:32:50.656Z,986.581
2022-08-31T15:34:50.336Z,986.599
2022-08-31T15:36:49.994Z,986.590
2022-08-31T15:38:49.992Z,986.643
2022-08-31T15:40:50.159Z,986.649
2022-08-31T15:42:50.167Z,986.685
2022-08-31T15:44:49.884Z,986.645
2022-08-31T15:46:50.015Z,986.644
2022-08-31T15:48:49.974Z,986.643
2022-08-31T15:50:50.159Z,986.676
2022-08-31T15:52:52.460Z,986.623
2022-08-31T15:54:50.569Z,986.620
2022-08-31T15:56:49.905Z,986.620
2022-08-31T15:58:50.781Z,986.575
2022-08-31T16:00:50.231Z,986.602
2022-08-31T16:02:50.174Z,986.575
2022-08-31T16:04:50.653Z,986.595
2022-08-31T16:06:50.054Z,986.601
2022-08-31T16:08:50.071Z,986.579
2022-08-31T16:10:49.891Z,986.544
2022-08-31T16:12:49.866Z,986.571
2022-08-31T16:14:50.637Z,986.576
2022-08-31T16:16:50.008Z,986.564
2022-08-31T16:18:50.126Z,986.593
2022-08-31T16:20:50.852Z,986.569
2022-08-31T16:22:49.949Z,986.540
2022-08-31T16:24:52.697Z,986.528
2022-08-31T16:26:50.073Z,986.548
2022-08-31T16:28:50.006Z,986.569
2022-08-31T16:30:52.003Z,986.577
2022-08-31T16:32:52.724Z,986.575
2022-08-31T16:34:50.007Z,986.637
2022-08-31T16:36:49.988Z,986.685
2022-08-31T16:38:50.036Z,986.672
2022-08-31T16:40:50.187Z,986.684
2022-08-31T16:42:50.656Z,986.708
2022-08-31T16:44:50.474Z,986.672
2022-08-31T16:46:50.885Z,986.684
2022-08-31T16:48:49.842Z,986.632
2022-08-31T16:50:49.880Z,986.603
2022-08-31T16:52:50.660Z,986.681
2022-08-31T16:54:50.472Z,986.693
2022-08-31T16:56:52.560Z,986.629
2022-08-31T16:58:53.654Z,986.630
2022-08-31T17:00:50.614Z,986.657
2022-08-31T17:02:50.863Z,986.656
2022-08-31T17:04:54.698Z,986.652
2022-08-31T17:06:49.893Z,986.692
2022-08-31T17:08:49.940Z,986.763
2022-08-31T17:10:49.866Z,986.763
2022-08-31T17:12:49.897Z,986.781
2022-08-31T17:14:50.535Z,986.829
2022-08-31T17:16:50.170Z,986.806
2022-08-31T17:18:50.018Z,986.863
2022-08-31T17:20:50.317Z,986.846
2022-08-31T17:22:50.203Z,986.836
2022-08-31T17:24:50.154Z,986.874
2022-08-31T17:26:50.633Z,986.908
2022-08-31T17:28:50.588Z,986.916
2022-08-31T17:30:50.570Z,986.939
2022-08-31T17:32:50.485Z,986.962
2022-08-31T17:34:50.198Z,986.960
2022-08-31T17:36:50.637Z,987.000
2022-08-31T17:38:50.601Z,987.081
2022-08-31T17:40:50.789Z,987.072
2022-08-31T17:42:50.271Z,987.078
2022-08-31T17:44:50.255Z,987.147
2022-08-31T17:46:50.700Z,987.136
2022-08-31T17:48:49.852Z,987.109
2022-08-31T17:50:50.686Z,987.137
2022-08-31T17:52:49.908Z,987.104
2022-08-31T17:54:51.208Z,987.153
2022-08-31T17:56:49.945Z,987.183
2022-08-31T17:58:50.069Z,987.220
2022-08-31T18:00:50.346Z,987.247
2022-08-31T18:02:50.376Z,987.263
2022-08-31T18:04:50.905Z,987.292
2022-08-31T18:06:50.374Z,987.298
2022-08-31T18:08:50.283Z,987.372
2022-08-31T18:10:50.613Z,987.357
2022-08-31T18:12:50.458Z,987.402
2022-08-31T18:14:50.435Z,987.472
2022-08-31T18:16:49.828Z,987.463
2022-08-31T18:18:49.810Z,987.522
2022-08-31T18:20:50.130Z,987.515
2022-08-31T18:22:52.844Z,987.508
2022-08-31T18:24:50.808Z,987.526
2022-08-31T18:26:49.952Z,987.541
2022-08-31T18:28:49.872Z,987.547
2022-08-31T18:30:49.853Z,987.562
2022-08-31T18:32:50.610Z,987.568
2022-08-31T18:34:57.584Z,987.583
2022-08-31T18:36:50.119Z,987.623
2022-08-31T18:38:50.021Z,987.594
2022-08-31T18:40:50.372Z,987.626
2022-08-31T18:42:50.709Z,987.587
2022-08-31T18:44:50.500Z,987.576
2022-08-31T18:46:50.048Z,987.573
2022-08-31T18:48:49.985Z,987.573
2022-08-31T18:50:49.996Z,987.646
2022-08-31T18:52:49.985Z,987.623
2022-08-31T18:54:50.035Z,987.617
2022-08-31T18:56:50.365Z,987.622
2022-08-31T18:58:50.266Z,987.633
2022-08-31T19:00:50.546Z,987.644
2022-08-31T19:02:50.084Z,987.665
2022-08-31T19:04:50.294Z,987.732
2022-08-31T19:06:50.692Z,987.733
2022-08-31T19:08:50.626Z,987.725
2022-08-31T19:10:50.600Z,987.774
2022-08-31T19:12:50.452Z,987.767
2022-08-31T19:14:50.427Z,987.714
2022-08-31T19:17:04.878Z,987.721
2022-08-31T19:18:50.637Z,987.733
2022-08-31T19:20:50.601Z,987.725
2022-08-31T19:22:50.493Z,987.791
2022-08-31T19:24:50.313Z,987.813
2022-08-31T19:26:50.430Z,987.816
2022-08-31T19:28:50.289Z,987.821
2022-08-31T19:30:50.092Z,987.783
2022-08-31T19:32:51.490Z,987.776
2022-08-31T19:34:50.029Z,987.767
2022-08-31T19:36:56.495Z,987.740
2022-08-31T19:38:49.823Z,987.756
2022-08-31T19:40:50.117Z,987.778
2022-08-31T19:45:25.001Z,987.753
2022-08-31T19:46:53.562Z,987.757
2022-08-31T19:48:50.473Z,987.737
2022-08-31T19:50:50.344Z,987.759
2022-08-31T19:52:50.293Z,987.770
2022-08-31T19:54:50.244Z,987.817
2022-08-31T19:56:50.759Z,987.836
2022-08-31T19:58:50.721Z,987.820
2022-08-31T20:00:49.813Z,987.810
2022-08-31T20:02:50.778Z,987.760
2022-08-31T20:04:50.554Z,987.758
2022-08-31T20:06:52.778Z,987.758
2022-08-31T20:08:49.895Z,987.762
2022-08-31T20:10:49.843Z,987.772
2022-08-31T20:12:52.821Z,987.756
2022-08-31T20:14:50.629Z,987.763
2022-08-31T20:16:50.097Z,987.760
2022-08-31T20:18:49.976Z,987.732
2022-08-31T20:20:50.205Z,987.748
2022-08-31T20:22:50.200Z,987.759
2022-08-31T20:24:50.179Z,987.734
2022-08-31T20:26:52.637Z,987.772
2022-08-31T20:28:50.947Z,987.793
2022-08-31T20:30:50.504Z,987.764
2022-08-31T20:32:50.275Z,987.744
2022-08-31T20:34:50.545Z,987.807
2022-08-31T20:36:49.850Z,987.799
2022-08-31T20:38:50.664Z,987.857
2022-08-31T20:40:50.697Z,987.842
2022-08-31T20:42:50.718Z,987.863
2022-08-31T20:44:50.592Z,987.900
2022-08-31T20:46:50.227Z,987.924
2022-08-31T20:48:50.378Z,987.941
2022-08-31T20:50:50.420Z,987.960
2022-08-31T20:52:50.184Z,987.976
2022-08-31T20:54:50.412Z,987.959
2022-08-31T20:56:50.557Z,987.934
2022-08-31T20:58:50.710Z,987.928
2022-08-31T21:00:50.039Z,987.964
2022-08-31T21:02:50.568Z,987.970
2022-08-31T21:04:50.486Z,987.954
2022-08-31T21:06:49.983Z,987.954
2022-08-31T21:08:56.951Z,987.960
2022-08-31T21:10:49.939Z,987.957
2022-08-31T21:13:00.258Z,987.955
2022-08-31T21:14:50.407Z,987.984
2022-08-31T21:16:50.490Z,987.962
2022-08-31T21:18:50.337Z,987.912
2022-08-31T21:20:50.280Z,987.896
2022-08-31T21:22:50.172Z,987.869
2022-08-31T21:24:50.052Z,987.843
2022-08-31T21:26:50.342Z,987.866
2022-08-31T21:28:50.263Z,987.826
2022-08-31T21:30:50.953Z,987.833
2022-08-31T21:32:50.216Z,987.825
2022-08-31T21:34:49.879Z,987.847
2022-08-31T21:36:50.210Z,987.809
2022-08-31T21:38:50.599Z,987.783
2022-08-31T21:40:50.476Z,987.759
2022-08-31T21:42:49.957Z,987.804
2022-08-31T21:44:49.924Z,987.825
2022-08-31T21:46:51.499Z,987.805
2022-08-31T21:48:50.610Z,987.798
2022-08-31T21:50:50.620Z,987.800
2022-08-31T21:52:50.719Z,987.793
2022-08-31T21:54:50.606Z,987.794
2022-08-31T21:56:49.847Z,987.801
2022-08-31T21:58:49.919Z,987.801
2022-08-31T22:00:49.876Z,987.807
2022-08-31T22:02:51.123Z,987.823
2022-08-31T22:04:50.795Z,987.801
2022-08-31T22:06:49.850Z,987.847
2022-08-31T22:08:50.055Z,987.856
2022-08-31T22:10:49.937Z,987.817
2022-08-31T22:12:50.256Z,987.816
2022-08-31T22:14:49.968Z,987.807
2022-08-31T22:16:50.900Z,987.807
2022-08-31T22:19:02.763Z,987.807
2022-08-31T22:20:50.481Z,987.875
2022-08-31T22:22:50.282Z,987.864
2022-08-31T22:24:50.879Z,987.870
2022-08-31T22:26:49.912Z,987.846
2022-08-31T22:28:49.969Z,987.844
2022-08-31T22:30:52.128Z,987.811
2022-08-31T22:32:49.995Z,987.832
2022-08-31T22:34:50.750Z,987.806
2022-08-31T22:36:50.496Z,987.776
2022-08-31T22:38:50.487Z,987.780
2022-08-31T22:40:50.689Z,987.756
2022-08-31T22:42:49.993Z,987.756
2022-08-31T22:44:49.904Z,987.793
2022-08-31T22:46:50.450Z,987.803
2022-08-31T22:48:50.494Z,987.795
2022-08-31T22:50:50.474Z,987.824
2022-08-31T22:52:50.343Z,987.774
2022-08-31T22:54:50.447Z,987.757
2022-08-31T22:56:50.587Z,987.750
2022-08-31T22:58:50.654Z,987.738
2022-08-31T23:00:50.708Z,987.741
2022-08-31T23:02:49.858Z,987.715
2022-08-31T23:04:50.436Z,987.730
2022-08-31T23:06:50.746Z,987.756
2022-08-31T23:08:50.694Z,987.744
2022-08-31T23:10:50.696Z,987.722
2022-08-31T23:12:55.896Z,987.736
2022-08-31T23:14:49.912Z,987.745
2022-08-31T23:16:49.910Z,987.734
2022-08-31T23:18:50.510Z,987.720
2022-08-31T23:20:50.474Z,987.730
2022-08-31T23:22:50.205Z,987.753
2022-08-31T23:24:50.277Z,987.773
2022-08-31T23:26:50.782Z,987.735
2022-08-31T23:28:50.714Z,987.769
2022-08-31T23:30:50.578Z,987.775
2022-08-31T23:32:50.800Z,987.753
2022-08-31T23:34:50.368Z,987.754
2022-08-31T23:36:50.699Z,987.734
2022-08-31T23:38:50.442Z,987.723
2022-08-31T23:40:53.191Z,987.716
2022-08-31T23:42:50.009Z,987.658
2022-08-31T23:44:50.581Z,987.648
2022-08-31T23:46:50.819Z,987.638
2022-08-31T23:48:52.383Z,987.583
2022-08-31T23:50:50.266Z,987.543
2022-08-31T23:52:50.265Z,987.527
2022-08-31T23:54:50.709Z,987.488
2022-08-31T23:56:50.078Z,987.494
2022-08-31T23:58:49.956Z,987.455
